createdAt,value
2022-11-02T00:03:47.930Z,10.63
2022-11-02T00:08:53.833Z,10.65
2022-11-02T00:13:59.718Z,10.68
2022-11-02T00:19:06.656Z,10.66
2022-11-02T00:24:12.859Z,10.64
2022-11-02T00:29:18.902Z,10.65
2022-11-02T00:34:25.544Z,10.68
2022-11-02T00:39:31.557Z,10.70
2022-11-02T00:44:37.501Z,10.68
2022-11-02T00:49:43.636Z,10.65
2022-11-02T00:54:50.442Z,10.68
2022-11-02T00:59:57.233Z,10.72
2022-11-02T01:05:03.262Z,10.74
2022-11-02T01:10:10.595Z,10.72
2022-11-02T01:15:16.785Z,10.73
2022-11-02T01:20:23.298Z,10.75
2022-11-02T01:25:29.234Z,10.75
2022-11-02T01:30:38.162Z,10.75
2022-11-02T01:35:44.454Z,10.73
2022-11-02T01:40:50.322Z,10.76
2022-11-02T01:46:00.118Z,10.78
2022-11-02T01:51:09.664Z,10.80
2022-11-02T01:56:18.234Z,10.80
2022-11-02T02:01:26.326Z,10.80
2022-11-02T02:06:32.688Z,10.83
2022-11-02T02:11:40.718Z,10.87
2022-11-02T02:16:57.296Z,10.89
2022-11-02T02:22:26.947Z,10.90
2022-11-02T02:27:46.484Z,10.94
2022-11-02T02:32:57.537Z,10.96
2022-11-02T02:38:07.756Z,10.99
2022-11-02T02:43:21.073Z,11.02
2022-11-02T02:48:27.387Z,11.03
2022-11-02T02:53:38.722Z,11.04
2022-11-02T02:58:52.994Z,11.08
2022-11-02T03:03:59.635Z,11.13
2022-11-02T03:09:16.778Z,11.14
2022-11-02T03:14:38.457Z,11.15
2022-11-02T03:19:53.246Z,11.18
2022-11-02T03:25:10.368Z,11.21
2022-11-02T03:30:19.981Z,11.24
2022-11-02T03:35:36.015Z,11.27
2022-11-02T03:40:47.062Z,11.28
2022-11-02T03:45:55.972Z,11.30
2022-11-02T03:51:08.829Z,11.35
2022-11-02T03:56:21.444Z,11.39
2022-11-02T04:01:29.639Z,11.43
2022-11-02T04:06:36.996Z,11.43
2022-11-02T04:12:01.923Z,11.46
2022-11-02T04:17:28.775Z,11.51
2022-11-02T04:22:54.001Z,11.55
2022-11-02T04:28:08.999Z,11.59
2022-11-02T04:33:35.265Z,11.61
2022-11-02T04:38:53.725Z,11.63
2022-11-02T04:44:04.253Z,11.65
2022-11-02T04:49:11.247Z,11.68
2022-11-02T04:54:17.258Z,11.74
2022-11-02T04:59:23.666Z,11.79
2022-11-02T05:04:29.813Z,11.78
2022-11-02T05:09:36.105Z,11.81
2022-11-02T05:14:42.693Z,11.84
2022-11-02T05:19:48.940Z,11.88
2022-11-02T05:24:54.863Z,11.92
2022-11-02T05:30:02.037Z,11.97
2022-11-02T05:35:09.725Z,11.99
2022-11-02T05:40:17.666Z,11.96
2022-11-02T05:45:24.903Z,11.95
2022-11-02T05:50:31.014Z,12.00
2022-11-02T05:55:38.683Z,12.05
2022-11-02T06:00:44.617Z,12.07
2022-11-02T06:05:57.904Z,12.11
2022-11-02T06:11:06.859Z,12.12
2022-11-02T06:16:18.703Z,12.14
2022-11-02T06:21:28.458Z,12.16
2022-11-02T06:26:34.248Z,12.19
2022-11-02T06:31:40.315Z,12.25
2022-11-02T06:36:46.286Z,12.30
2022-11-02T06:41:52.814Z,12.34
2022-11-02T06:46:59.236Z,12.37
2022-11-02T06:52:05.435Z,12.44
2022-11-02T06:57:11.303Z,12.52
2022-11-02T07:02:17.329Z,12.60
2022-11-02T07:07:23.486Z,12.60
2022-11-02T07:12:31.557Z,12.59
2022-11-02T07:17:41.169Z,12.66
2022-11-02T07:22:55.863Z,12.78
2022-11-02T07:28:02.912Z,12.96
2022-11-02T07:33:09.038Z,13.12
2022-11-02T07:38:15.329Z,14.18
2022-11-02T07:43:21.626Z,15.93
2022-11-02T07:48:36.152Z,17.30
2022-11-02T07:53:42.610Z,18.75
2022-11-02T07:58:49.101Z,19.95
2022-11-02T08:03:56.511Z,20.24
2022-11-02T08:09:03.322Z,19.75
2022-11-02T08:14:29.141Z,19.23
2022-11-02T08:19:35.239Z,18.95
2022-11-02T08:24:41.293Z,18.90
2022-11-02T08:29:47.106Z,19.11
2022-11-02T08:34:53.120Z,19.19
2022-11-02T08:39:59.000Z,19.02
2022-11-02T08:45:06.168Z,18.49
2022-11-02T08:50:13.672Z,18.26
2022-11-02T08:55:21.136Z,18.33
2022-11-02T09:00:30.089Z,18.88
2022-11-02T09:05:37.932Z,19.15
2022-11-02T09:10:46.021Z,18.90
2022-11-02T09:15:53.833Z,18.46
2022-11-02T09:21:03.820Z,18.11
2022-11-02T09:26:09.649Z,17.94
2022-11-02T09:31:15.585Z,17.59
2022-11-02T09:36:21.819Z,17.21
2022-11-02T09:41:36.668Z,16.96
2022-11-02T09:46:46.040Z,16.89
2022-11-02T09:51:55.312Z,16.90
2022-11-02T09:57:05.385Z,16.73
2022-11-02T10:02:25.312Z,16.57
2022-11-02T10:07:57.315Z,16.35
2022-11-02T10:13:14.736Z,16.13
2022-11-02T10:18:24.663Z,15.90
2022-11-02T10:23:33.681Z,15.69
2022-11-02T10:28:43.933Z,15.45
2022-11-02T10:33:52.867Z,15.33
2022-11-02T10:39:12.554Z,15.25
2022-11-02T10:44:32.947Z,15.17
2022-11-02T10:49:58.518Z,15.10
2022-11-02T10:55:05.117Z,15.09
2022-11-02T11:00:26.992Z,15.11
2022-11-02T11:05:33.941Z,15.07
2022-11-02T11:10:40.680Z,15.00
2022-11-02T11:15:52.642Z,14.97
2022-11-02T11:20:59.693Z,14.94
2022-11-02T11:26:12.157Z,14.86
2022-11-02T11:31:19.753Z,14.79
2022-11-02T11:36:30.389Z,14.81
2022-11-02T11:41:43.758Z,14.89
2022-11-02T11:46:54.209Z,15.06
2022-11-02T11:52:02.734Z,15.32
2022-11-02T11:57:28.297Z,15.66
2022-11-02T12:02:40.951Z,15.81
2022-11-02T12:08:20.452Z,15.67
2022-11-02T12:13:45.646Z,15.40
2022-11-02T12:19:04.507Z,15.17
2022-11-02T12:24:33.616Z,15.25
2022-11-02T12:30:01.402Z,15.53
2022-11-02T12:35:32.234Z,16.03
2022-11-02T12:40:54.751Z,16.49
2022-11-02T12:46:07.722Z,16.48
2022-11-02T12:51:16.735Z,16.37
2022-11-02T12:56:26.449Z,16.46
2022-11-02T13:01:35.984Z,16.57
2022-11-02T13:06:44.529Z,16.58
2022-11-02T13:12:06.194Z,16.62
2022-11-02T13:17:17.967Z,16.65
2022-11-02T13:22:32.116Z,16.63
2022-11-02T13:27:46.107Z,16.52
2022-11-02T13:32:58.753Z,16.38
2022-11-02T13:38:13.567Z,16.37
2022-11-02T13:43:47.947Z,16.14
2022-11-02T13:48:59.152Z,15.84
2022-11-02T13:54:07.105Z,15.60
2022-11-02T13:59:23.619Z,15.51
2022-11-02T14:04:37.904Z,15.56
2022-11-02T14:09:45.724Z,15.59
2022-11-02T14:15:46.615Z,15.59
2022-11-02T14:20:52.893Z,15.36
2022-11-02T14:25:59.610Z,15.04
2022-11-02T14:31:31.638Z,14.68
2022-11-02T14:36:55.449Z,14.31
2022-11-02T14:42:19.672Z,13.96
2022-11-02T14:47:29.906Z,13.60
2022-11-02T14:52:37.807Z,13.25
2022-11-02T14:57:52.595Z,12.92
2022-11-02T15:03:00.702Z,12.67
2022-11-02T15:08:09.305Z,12.47
2022-11-02T15:13:39.988Z,12.27
2022-11-02T15:18:46.066Z,12.09
2022-11-02T15:24:16.982Z,11.88
2022-11-02T15:29:37.059Z,11.69
2022-11-02T15:34:48.050Z,11.50
2022-11-02T15:39:57.097Z,11.33
2022-11-02T15:45:51.856Z,11.17
2022-11-02T15:51:14.470Z,10.88
2022-11-02T15:56:39.895Z,10.61
2022-11-02T16:01:46.120Z,10.40
2022-11-02T16:06:53.205Z,10.23
2022-11-02T16:12:13.192Z,10.07
2022-11-02T16:17:24.820Z,9.87
2022-11-02T16:22:31.001Z,9.66
2022-11-02T16:27:40.705Z,9.48
2022-11-02T16:32:49.786Z,9.33
2022-11-02T16:37:56.192Z,9.20
2022-11-02T16:43:02.189Z,9.08
2022-11-02T16:48:21.738Z,8.90
2022-11-02T16:53:32.014Z,8.71
2022-11-02T16:58:38.142Z,8.59
2022-11-02T17:03:44.170Z,8.41
2022-11-02T17:08:55.502Z,8.38
2022-11-02T17:14:02.696Z,8.47
2022-11-02T17:19:46.905Z,8.64
2022-11-02T17:25:04.783Z,8.83
2022-11-02T17:30:40.615Z,9.02
2022-11-02T17:35:50.582Z,9.18
2022-11-02T17:40:59.224Z,9.27
2022-11-02T17:46:05.213Z,9.32
2022-11-02T17:51:15.483Z,9.39
2022-11-02T17:56:22.429Z,9.57
2022-11-02T18:01:28.807Z,9.79
2022-11-02T18:06:35.268Z,10.00
2022-11-02T18:11:41.576Z,10.14
2022-11-02T18:16:48.268Z,10.28
2022-11-02T18:21:54.185Z,10.43
2022-11-02T18:27:00.341Z,10.53
2022-11-02T18:32:06.628Z,10.60
2022-11-02T18:37:12.586Z,10.69
2022-11-02T18:42:18.748Z,10.79
2022-11-02T18:47:25.403Z,10.89
2022-11-02T18:52:32.488Z,10.96
2022-11-02T18:57:38.591Z,11.06
2022-11-02T19:02:44.772Z,11.19
2022-11-02T19:08:09.658Z,11.28
2022-11-02T19:13:16.120Z,11.34
2022-11-02T19:18:22.431Z,11.40
2022-11-02T19:23:28.475Z,11.46
2022-11-02T19:28:34.496Z,11.50
2022-11-02T19:33:40.821Z,11.52
2022-11-02T19:38:46.744Z,11.52
2022-11-02T19:43:53.402Z,11.53
2022-11-02T19:48:59.742Z,11.52
2022-11-02T19:54:06.391Z,11.48
2022-11-02T19:59:12.944Z,11.46
2022-11-02T20:04:19.335Z,11.45
2022-11-02T20:09:25.246Z,11.43
2022-11-02T20:14:31.428Z,11.39
2022-11-02T20:19:37.867Z,11.37
2022-11-02T20:24:44.133Z,11.36
2022-11-02T20:29:50.376Z,11.33
2022-11-02T20:34:56.246Z,11.31
2022-11-02T20:40:02.384Z,11.27
2022-11-02T20:45:10.435Z,11.28
2022-11-02T20:50:19.409Z,11.29
2022-11-02T20:55:29.975Z,11.26
2022-11-02T21:00:36.261Z,11.22
2022-11-02T21:05:42.797Z,11.19
2022-11-02T21:10:57.949Z,11.11
2022-11-02T21:16:05.953Z,10.98
2022-11-02T21:21:13.932Z,10.84
2022-11-02T21:26:19.802Z,10.74
2022-11-02T21:31:26.033Z,10.72
2022-11-02T21:36:32.075Z,10.67
2022-11-02T21:41:39.096Z,10.54
2022-11-02T21:46:45.091Z,10.40
2022-11-02T21:51:50.963Z,10.27
2022-11-02T21:56:58.251Z,10.05
2022-11-02T22:02:04.309Z,9.74
2022-11-02T22:07:10.666Z,9.49
2022-11-02T22:12:35.492Z,9.25
2022-11-02T22:17:49.549Z,9.12
2022-11-02T22:22:56.107Z,9.04
2022-11-02T22:28:02.094Z,9.00
2022-11-02T22:33:11.425Z,9.00
2022-11-02T22:38:36.017Z,9.05
2022-11-02T22:43:42.475Z,9.20
2022-11-02T22:48:50.222Z,9.33
2022-11-02T22:53:59.571Z,9.46
2022-11-02T22:59:06.137Z,9.61
2022-11-02T23:04:13.350Z,9.72
2022-11-02T23:09:19.463Z,9.75
2022-11-02T23:14:25.313Z,9.76
2022-11-02T23:19:31.803Z,9.79
2022-11-02T23:24:57.192Z,9.80
2022-11-02T23:30:22.422Z,9.76
2022-11-02T23:35:47.262Z,9.62
2022-11-02T23:40:56.209Z,9.48
2022-11-02T23:46:02.460Z,9.36
2022-11-02T23:51:27.874Z,9.24
2022-11-02T23:56:44.237Z,9.08
